Time;durP1;ratioP1;P1;durP2;ratioP2;P2;SDS_P1;SDS_P2;PMS_P1;PMS_P2;Temp;Humidity;BMP_temperature;BMP_pressure;BME280_temperature;BME280_humidity;BME280_pressure;Samples;Min_cycle;Max_cycle;Signal;HPM_P1;HPM_P2
2022/12/25 00:08:29;;;;;;;;;;;;;;;;;;;;;
2022/12/25 05:01:51;;;;;;;4.25;3.25;;;;;;;1.35;56.69;99901.97;4915236;29;20052;-94
2022/12/25 05:04:27;;;;;;;16.70;3.83;;;;;;;1.11;57.44;99887.75;4881686;29;20095;-94
2022/12/25 05:06:54;;;;;;;9.05;3.60;;;;;;;1.44;57.97;99957.13;4861964;29;20056;-93
2022/12/25 05:09:22;;;;;;;4.95;3.70;;;;;;;1.16;57.21;99894.06;4876895;29;20036;-93
2022/12/25 05:11:48;;;;;;;7.32;3.92;;;;;;;1.60;56.81;99969.84;4850963;29;20049;-92
2022/12/25 05:14:14;;;;;;;5.80;3.85;;;;;;;0.98;57.60;99909.53;4862212;29;20083;-93
2022/12/25 05:16:45;;;;;;;9.20;3.75;;;;;;;0.63;57.88;99900.41;4878267;29;20503;-93
2022/12/25 05:19:11;;;;;;;7.10;4.07;;;;;;;0.57;58.22;99882.50;4876753;29;20036;-96
2022/12/25 05:21:42;;;;;;;6.90;4.10;;;;;;;1.17;57.65;99978.34;4853520;29;20045;-94
2022/12/25 05:24:13;;;;;;;6.65;4.25;;;;;;;0.47;57.84;99876.88;4857992;29;20355;-94
2022/12/25 05:26:56;;;;;;;5.82;3.90;;;;;;;1.27;57.52;100005.50;4856111;29;20041;-93
2022/12/25 05:30:10;;;;;;;7.38;4.30;;;;;;;1.14;57.64;100028.09;4849728;29;20131;-93
2022/12/25 05:32:36;;;;;;;6.28;3.88;;;;;;;0.82;57.07;99949.53;4871166;29;20099;-93
2022/12/25 05:35:02;;;;;;;8.00;3.97;;;;;;;1.01;57.48;99987.94;4860706;29;20084;-94
2022/12/25 05:37:31;;;;;;;6.88;4.13;;;;;;;0.96;57.52;99960.06;4861380;29;20041;-93
2022/12/25 05:40:57;;;;;;;7.30;4.38;;;;;;;1.05;57.50;100016.03;4864589;29;20068;-96
2022/12/25 05:43:49;;;;;;;9.45;4.85;;;;;;;0.55;58.54;99916.06;4837065;29;20630;-94
2022/12/25 05:46:17;;;;;;;7.18;4.85;;;;;;;1.16;57.57;99998.25;4843126;29;20140;-94
2022/12/25 05:48:50;;;;;;;10.55;4.65;;;;;;;0.81;56.57;99942.53;4875936;29;20059;-96
2022/12/25 05:51:29;;;;;;;;;;;;;;;;;;;;;
2022/12/25 05:54:21;;;;;;;11.55;5.07;;;;;;;1.24;57.46;100032.09;4881262;29;20155;-94
2022/12/25 05:56:50;;;;;;;10.20;4.80;;;;;;;0.57;57.08;99962.41;4858664;29;20057;-96
2022/12/25 05:59:19;;;;;;;7.35;4.53;;;;;;;0.59;57.26;99954.91;4850082;29;20048;-96
2022/12/25 06:01:52;;;;;;;7.78;4.82;;;;;;;1.24;56.61;100014.06;4859251;29;20037;-94
2022/12/25 06:04:19;;;;;;;8.60;4.68;;;;;;;0.92;55.37;99957.03;4864762;29;20044;-92
2022/12/25 06:06:56;;;;;;;10.63;4.97;;;;;;;1.57;55.54;100070.03;4855014;29;20041;-94
2022/12/25 06:09:57;;;;;;;;;;;;;;;;;;;;;
2022/12/25 06:15:24;;;;;;;12.57;6.03;;;;;;;0.90;56.64;100037.22;4903399;29;20057;-95
2022/12/25 06:17:51;;;;;;;15.82;6.05;;;;;;;0.44;56.75;99980.38;4857213;29;20499;-93
2022/12/25 06:20:26;;;;;;;46.25;12.75;;;;;;;0.63;55.47;99973.06;4870756;29;20041;-95
2022/12/25 06:23:00;;;;;;;19.30;8.70;;;;;;;1.09;56.41;100043.31;4852215;29;20558;-95
2022/12/25 06:25:26;;;;;;;13.30;6.15;;;;;;;0.79;56.40;99989.56;4854261;29;20092;-95
2022/12/25 06:28:03;;;;;;;8.50;5.67;;;;;;;1.17;55.35;100051.88;4861141;29;20055;-94
2022/12/25 06:30:32;;;;;;;8.32;4.63;;;;;;;0.55;55.24;99989.50;4875518;29;20032;-96
2022/12/25 06:33:15;;;;;;;9.98;5.15;;;;;;;0.38;55.99;99978.59;4863658;29;20049;-94
2022/12/25 06:35:52;;;;;;;6.25;4.97;;;;;;;0.72;57.09;99997.72;4866634;29;20028;-94
2022/12/25 06:38:28;;;;;;;9.90;4.97;;;;;;;0.47;55.92;99996.06;4869715;29;20061;-94
2022/12/25 06:40:54;;;;;;;10.75;5.05;;;;;;;0.27;55.91;99982.09;4877704;29;20049;-96
2022/12/25 06:43:22;;;;;;;7.15;4.85;;;;;;;0.33;56.14;100005.38;4844048;29;20068;-92
2022/12/25 06:45:55;;;;;;;7.13;5.15;;;;;;;0.32;57.31;100011.78;4858994;29;20111;-92
2022/12/25 06:48:29;;;;;;;11.52;5.72;;;;;;;0.49;56.37;100009.25;4860884;29;20082;-94
2022/12/25 06:51:08;;;;;;;;;;;;;;;;;;;;;
2022/12/25 06:53:51;;;;;;;8.18;4.90;;;;;;;0.68;55.37;100005.44;4874393;29;20465;-92
2022/12/25 06:56:52;;;;;;;10.13;5.47;;;;;;;0.81;56.48;100009.00;4865907;29;20101;-94
2022/12/25 06:59:46;;;;;;;8.40;4.90;;;;;;;0.48;55.67;99986.13;4862919;29;20045;-94
2022/12/25 07:02:34;;;;;;;24.98;8.23;;;;;;;1.06;55.27;100068.84;4894066;29;20064;-94
2022/12/25 07:05:02;;;;;;;37.22;10.88;;;;;;;0.75;55.35;100010.72;4867461;29;20104;-95
2022/12/25 07:07:37;;;;;;;11.18;5.53;;;;;;;1.18;55.27;100083.13;4875827;29;20052;-94
2022/12/25 07:10:36;;;;;;;9.55;4.90;;;;;;;1.14;54.59;100059.59;4877934;29;20036;-95
2022/12/25 07:13:23;;;;;;;7.47;4.78;;;;;;;0.96;55.07;100062.38;4865734;29;20048;-96
2022/12/25 07:16:06;;;;;;;15.90;6.47;;;;;;;0.93;54.76;100028.69;4875266;29;20340;-93
2022/12/25 07:19:08;;;;;;;13.88;4.97;;;;;;;1.36;53.54;100111.03;4879005;29;20044;-93
2022/12/25 07:22:08;;;;;;;12.98;4.95;;;;;;;0.92;54.47;100005.47;4881427;29;20153;-94
2022/12/25 07:25:15;;;;;;;6.45;4.32;;;;;;;0.87;54.10;100041.19;4878731;29;20042;-95
2022/12/25 07:28:07;;;;;;;8.07;4.90;;;;;;;0.98;55.13;100033.34;4858462;29;20032;-94
2022/12/25 07:30:49;;;;;;;10.93;5.03;;;;;;;0.92;53.63;100037.78;4858879;29;20110;-92
2022/12/25 07:33:52;;;;;;;8.85;4.72;;;;;;;1.47;54.84;100139.03;4864420;29;20151;-96
2022/12/25 07:36:38;;;;;;;8.15;4.90;;;;;;;0.93;54.45;100061.81;4868270;29;20396;-92
2022/12/25 07:39:06;;;;;;;6.35;3.85;;;;;;;1.14;53.83;100084.66;4849701;29;20044;-95
2022/12/25 07:41:33;;;;;;;9.82;4.50;;;;;;;0.92;53.31;100051.25;4850999;29;20068;-91
2022/12/25 07:44:13;;;;;;;11.18;4.53;;;;;;;1.34;54.25;100115.81;4863248;29;20045;-95
2022/12/25 07:46:42;;;;;;;14.43;4.28;;;;;;;1.40;53.70;100104.13;4874830;29;20107;-94
2022/12/25 07:49:11;;;;;;;7.40;4.18;;;;;;;1.36;53.30;100149.56;4854698;29;20052;-93
2022/12/25 07:51:40;;;;;;;8.63;4.40;;;;;;;0.95;55.19;100069.63;4864474;29;20053;-92
2022/12/25 07:54:07;;;;;;;6.53;4.22;;;;;;;1.23;54.46;100109.38;4874677;29;20076;-94
2022/12/25 07:56:34;;;;;;;9.77;4.13;;;;;;;0.93;54.03;100095.97;4855018;29;20040;-93
2022/12/25 07:59:48;;;;;;;;;;;;;;;;;;;;;
2022/12/25 08:03:38;;;;;;;7.55;4.38;;;;;;;1.77;54.05;100144.31;4804872;29;20059;-94
2022/12/25 08:51:18;;;;;;;10.65;5.40;;;;;;;0.77;55.53;100220.44;4896841;29;20085;-92
2022/12/25 09:02:40;;;;;;;16.02;4.90;;;;;;;0.93;54.99;100168.66;4903863;29;20029;-90
2022/12/25 09:05:09;;;;;;;9.82;4.75;;;;;;;1.27;54.78;100209.38;4902775;29;20076;-93
2022/12/25 09:08:25;;;;;;;;;;;;;;;;;;;;;
2022/12/25 09:12:28;;;;;;;24.00;8.60;;;;;;;0.94;54.49;100261.81;4935131;23;20135;-94
2022/12/25 09:14:59;;;;;;;12.88;5.40;;;;;;;0.26;54.11;100119.44;4860663;29;20048;-93
2022/12/25 09:17:51;;;;;;;61.10;16.73;;;;;;;0.49;53.93;100165.28;4845115;29;20135;-92
2022/12/25 09:21:01;;;;;;;19.95;7.93;;;;;;;0.54;53.78;100153.88;4858452;29;20032;-93
2022/12/25 09:23:41;;;;;;;;;;;;;;;;;;;;;
2022/12/25 09:31:37;;;;;;;;;;;;;;;;;;;;;
2022/12/25 09:35:27;;;;;;;9.52;5.32;;;;;;;0.87;55.18;100247.63;4707421;30;20092;-93
2022/12/25 09:38:55;;;;;;;10.60;6.03;;;;;;;0.55;54.53;100188.59;4739619;30;20083;-93
2022/12/25 09:42:00;;;;;;;9.43;4.00;;;;;;;1.06;54.24;100300.41;4743732;30;20071;-91
2022/12/25 09:45:10;;;;;;;6.07;3.80;;;;;;;0.53;55.09;100225.69;4737658;30;20114;-91
2022/12/25 09:47:41;;;;;;;7.57;4.65;;;;;;;0.30;55.09;100188.69;4738027;30;20029;-92
2022/12/25 09:51:09;;;;;;;10.13;4.30;;;;;;;0.64;54.79;100230.28;4734805;30;20052;-92
2022/12/25 09:53:48;;;;;;;10.23;4.63;;;;;;;0.59;54.78;100224.75;4718059;30;20120;-94
2022/12/25 09:56:52;;;;;;;8.63;4.00;;;;;;;0.76;54.35;100232.22;4700091;30;20152;-93
2022/12/25 09:59:26;;;;;;;10.77;4.57;;;;;;;0.51;55.98;100183.91;4705006;30;20065;-94
2022/12/25 10:02:12;;;;;;;;;;;;;;;1.28;56.19;100302.59;4713346;30;20033;-92
2022/12/25 10:04:55;;;;;;;8.63;4.30;;;;;;;1.25;55.34;100308.44;4736869;30;19942;-91
2022/12/25 10:08:12;;;;;;;6.03;3.65;;;;;;;0.51;55.64;100213.50;4754032;30;20067;-91
2022/12/25 10:10:53;;;;;;;7.18;4.35;;;;;;;0.85;56.30;100261.28;4746660;30;20059;-92
2022/12/25 10:13:56;;;;;;;7.32;4.10;;;;;;;1.22;54.27;100308.91;4752120;30;20068;-92
2022/12/25 10:16:57;;;;;;;5.78;4.05;;;;;;;1.23;55.26;100294.41;4767437;30;20060;-93
2022/12/25 10:19:44;;;;;;;9.35;3.85;;;;;;;1.47;54.81;100309.59;4752961;30;20176;-95
2022/12/25 10:22:36;;;;;;;10.70;4.97;;;;;;;1.20;55.69;100276.00;4752804;30;20059;-93
2022/12/25 10:25:07;;;;;;;8.38;4.05;;;;;;;1.30;54.95;100277.09;4753113;30;20076;-90
2022/12/25 10:27:42;;;;;;;7.28;4.07;;;;;;;0.62;54.77;100204.66;4764053;30;20048;-93
2022/12/25 10:30:22;;;;;;;8.73;3.88;;;;;;;0.95;54.79;100236.53;4774682;30;20047;-91
2022/12/25 10:32:59;;;;;;;7.35;4.72;;;;;;;1.00;55.93;100260.09;4790404;29;20101;-91
2022/12/25 10:35:30;;;;;;;13.40;5.57;;;;;;;1.27;55.55;100303.66;4800711;29;20122;-92
2022/12/25 10:38:21;;;;;;;7.53;3.83;;;;;;;1.02;54.64;100296.50;4763129;29;20070;-93
2022/12/25 10:41:40;;;;;;;9.68;3.78;;;;;;;1.10;55.24;100344.69;4779850;29;20086;-92
2022/12/25 10:44:24;;;;;;;9.52;3.90;;;;;;;1.08;55.40;100329.78;4793060;29;20066;-93
2022/12/25 10:54:17;;;;;;;5.93;3.67;;;;;;;0.75;54.06;100260.19;4970145;23;20048;-95
2022/12/25 10:57:24;;;;;;;7.10;3.72;;;;;;;1.31;54.55;100350.63;4838495;29;20037;-94
2022/12/25 11:01:14;;;;;;;11.73;4.15;;;;;;;1.37;53.14;100320.09;4819346;29;20035;-92
2022/12/25 11:19:50;;;;;;;8.68;4.38;;;;;;;1.15;53.41;100233.56;4894602;29;20124;-94
2022/12/25 11:22:28;;;;;;;10.30;4.53;;;;;;;1.46;52.38;100261.31;4870883;29;20061;-93
2022/12/25 11:25:38;;;;;;;9.75;4.22;;;;;;;1.45;53.42;100273.16;4833489;29;20144;-92
2022/12/25 11:29:53;;;;;;;6.93;4.63;;;;;;;1.76;54.31;100347.56;4820860;29;20059;-92
2022/12/25 11:41:21;;;;;;;;;;;;;;;;;;;;;
2022/12/25 11:55:54;;;;;;;;;;;;;;;;;;;;;
2022/12/25 12:00:03;;;;;;;;;;;;;;;;;;;;;
2022/12/25 12:31:50;;;;;;;15.63;4.60;;;;;;;0.95;54.19;100422.31;4914630;27;20076;-93
2022/12/25 12:34:51;;;;;;;11.63;4.70;;;;;;;0.79;54.86;100412.91;4880214;29;20055;-94
2022/12/25 13:10:22;;;;;;;19.45;5.10;;;;;;;1.48;51.57;100437.06;4776753;29;20055;-94
2022/12/25 13:13:55;;;;;;;7.28;4.80;;;;;;;1.37;51.49;100438.66;5294441;23;20526;-92
2022/12/25 13:32:44;;;;;;;;;;;;;;;;;;;;;
2022/12/25 13:36:00;;;;;;;12.80;5.85;;;;;;;0.86;51.96;100375.16;4841436;29;20050;-93
2022/12/25 13:39:29;;;;;;;;;;;;;;;;;;;;;
2022/12/25 13:47:02;;;;;;;10.20;5.28;;;;;;;0.16;52.51;100380.75;4827511;29;20107;-92
2022/12/25 13:55:19;;;;;;;21.65;8.00;;;;;;;0.47;53.48;100410.31;4755418;30;20070;-94
2022/12/25 14:11:08;;;;;;;;;;;;;;;;;;;;;
2022/12/25 17:12:32;;;;;;;35.28;13.73;;;;;;;0.94;55.50;100593.78;5284185;23;20064;-92
2022/12/25 17:38:00;;;;;;;20.02;9.40;;;;;;;0.70;53.42;100551.53;4950990;23;20040;-92
2022/12/25 18:18:22;;;;;;;13.63;6.30;;;;;;;0.45;53.53;100529.94;4924467;29;20060;-90
2022/12/25 19:42:04;;;;;;;;;;;;;;;0.99;52.81;100706.22;4915293;29;20116;-90
2022/12/25 19:44:41;;;;;;;10.77;4.30;;;;;;;0.55;52.88;100624.47;4869488;29;19990;-91
2022/12/25 19:47:12;;;;;;;6.43;3.72;;;;;;;0.55;53.59;100639.78;4864091;29;20132;-90
2022/12/25 19:49:44;;;;;;;15.57;6.20;;;;;;;0.35;53.45;100597.66;4848161;29;20052;-92
2022/12/25 19:52:17;;;;;;;12.18;5.00;;;;;;;0.51;52.75;100622.44;4874760;29;20076;-92
2022/12/25 19:54:45;;;;;;;9.40;5.18;;;;;;;0.64;52.69;100647.41;4848739;29;20037;-92
2022/12/25 19:57:18;;;;;;;14.75;5.15;;;;;;;0.33;53.56;100586.31;4845591;29;20053;-92
2022/12/25 19:59:48;;;;;;;10.00;4.60;;;;;;;0.86;53.64;100666.75;4889181;29;20056;-92
2022/12/25 20:05:07;;;;;;;7.70;3.75;;;;;;;1.15;52.98;100710.28;4814323;29;20185;-91
2022/12/25 20:07:35;;;;;;;8.20;4.40;;;;;;;0.64;53.76;100625.03;4833130;29;20140;-90
2022/12/25 20:10:06;;;;;;;7.43;3.90;;;;;;;0.54;53.49;100614.75;4833664;29;20059;-92
2022/12/25 20:12:35;;;;;;;8.90;4.07;;;;;;;0.57;53.88;100608.13;4822980;29;20560;-92
2022/12/25 20:15:04;;;;;;;8.10;4.20;;;;;;;1.00;53.26;100672.88;4829362;29;20066;-91
2022/12/25 20:17:39;;;;;;;10.70;4.72;;;;;;;0.97;53.14;100657.16;4831464;29;20074;-94
2022/12/25 20:20:29;;;;;;;11.38;5.40;;;;;;;0.67;52.83;100595.00;4803277;29;20053;-91
2022/12/25 20:23:22;;;;;;;10.20;4.95;;;;;;;0.58;53.26;100588.22;4783667;30;20051;-92
2022/12/25 20:25:59;;;;;;;9.77;4.90;;;;;;;0.93;53.03;100646.00;4748023;30;20100;-92
2022/12/25 20:29:24;;;;;;;12.20;5.22;;;;;;;1.24;52.80;100694.69;4766995;30;20175;-93
2022/12/25 20:35:58;;;;;;;12.25;5.63;;;;;;;0.76;52.68;100617.09;4863204;29;20142;-94
2022/12/25 20:42:42;;;;;;;12.07;5.20;;;;;;;1.16;52.95;100671.53;4859309;29;20045;-94
2022/12/25 20:46:11;;;;;;;11.75;5.68;;;;;;;0.85;52.59;100645.41;4810653;29;20325;-92
2022/12/25 20:49:11;;;;;;;14.63;5.68;;;;;;;0.50;53.19;100602.78;4779416;29;20050;-92
2022/12/25 20:51:58;;;;;;;;;;;;;;;;;;;;;
2022/12/25 20:54:57;;;;;;;9.63;4.72;;;;;;;0.66;53.19;100631.88;4796991;29;20063;-92
2022/12/25 20:58:01;;;;;;;9.68;5.55;;;;;;;0.72;53.50;100629.34;4784105;29;20545;-93
2022/12/25 21:01:15;;;;;;;6.93;4.20;;;;;;;0.87;53.66;100621.81;4808314;29;20049;-92
2022/12/25 21:04:35;;;;;;;8.27;4.47;;;;;;;1.47;52.81;100712.97;4793007;29;20071;-92
2022/12/25 21:11:32;;;;;;;;;;;;;;;;;;;;;
2022/12/25 21:14:29;;;;;;;18.67;7.35;;;;;;;1.27;53.01;100696.94;4744063;30;20048;-93
2022/12/25 21:17:18;;;;;;;18.77;6.93;;;;;;;1.54;51.97;100744.22;4788575;29;20054;-93
2022/12/25 21:19:47;;;;;;;18.02;6.70;;;;;;;1.13;51.71;100680.88;4774636;29;20047;-94
2022/12/25 21:22:57;;;;;;;21.05;7.55;;;;;;;0.97;52.18;100650.94;4791095;29;20086;-95
2022/12/25 21:26:17;;;;;;;19.17;6.40;;;;;;;1.02;52.66;100654.63;4795944;29;20061;-93
2022/12/25 21:29:47;;;;;;;16.98;6.45;;;;;;;1.36;52.49;100693.78;4896053;23;20067;-92
2022/12/25 21:36:36;;;;;;;12.75;5.50;;;;;;;0.98;52.04;100648.03;4802031;29;20055;-93
2022/12/25 21:42:50;;;;;;;12.60;5.28;;;;;;;0.90;52.26;100629.44;5023957;23;20064;-92
2022/12/25 21:46:07;;;;;;;10.60;5.05;;;;;;;1.54;51.44;100749.59;4857053;29;20052;-93
2022/12/25 21:48:45;;;;;;;9.65;5.00;;;;;;;1.06;51.36;100693.56;4855645;29;20059;-90
2022/12/25 21:55:57;;;;;;;;;;;;;;;;;;;;;
2022/12/25 21:59:01;;;;;;;11.02;5.35;;;;;;;0.49;51.37;100640.63;4756588;30;20025;-92
2022/12/25 22:04:46;;;;;;;16.67;6.53;;;;;;;1.30;52.08;100759.28;4893629;29;20052;-93
2022/12/25 22:07:20;;;;;;;16.05;6.13;;;;;;;1.02;51.57;100699.56;4843829;29;20049;-92
2022/12/25 22:09:50;;;;;;;13.70;5.85;;;;;;;0.62;51.41;100627.94;4853559;29;20053;-94
2022/12/25 22:21:18;;;;;;;15.50;6.38;;;;;;;1.28;52.16;100691.31;4866482;29;20111;-91
2022/12/25 22:23:45;;;;;;;13.80;6.13;;;;;;;1.06;52.13;100655.00;4838592;29;20135;-95
2022/12/25 22:26:15;;;;;;;19.55;6.60;;;;;;;1.03;51.75;100653.59;4840230;29;20032;-95
2022/12/25 22:28:48;;;;;;;13.68;6.03;;;;;;;1.44;52.21;100718.78;4843313;29;20048;-94
2022/12/25 22:31:19;;;;;;;10.30;5.28;;;;;;;0.88;51.99;100626.13;4836039;29;20139;-92
2022/12/25 22:33:54;;;;;;;13.00;5.40;;;;;;;1.31;51.88;100690.06;4843468;29;20045;-95
2022/12/25 22:36:41;;;;;;;9.98;5.80;;;;;;;1.12;51.75;100654.97;4855715;29;20045;-92
2022/12/25 22:39:13;;;;;;;16.15;5.72;;;;;;;1.68;50.60;100755.72;4841404;29;20041;-93
2022/12/25 22:41:50;;;;;;;11.10;5.45;;;;;;;1.03;50.54;100658.97;4843054;29;20041;-93
2022/12/25 22:44:21;;;;;;;8.77;5.25;;;;;;;1.02;50.81;100651.09;4837509;29;20056;-93
2022/12/25 22:46:53;;;;;;;10.18;5.22;;;;;;;1.05;50.88;100654.19;4849595;29;20048;-93
2022/12/25 22:49:21;;;;;;;14.27;5.57;;;;;;;1.02;51.40;100643.84;4853710;29;20057;-94
2022/12/25 22:51:54;;;;;;;13.10;7.00;;;;;;;1.15;51.46;100670.69;4838879;29;20068;-96
2022/12/25 22:54:51;;;;;;;17.45;7.72;;;;;;;0.95;51.37;100648.44;4856942;29;20041;-93
2022/12/25 22:57:20;;;;;;;14.38;7.35;;;;;;;1.10;51.88;100665.16;4852689;29;20459;-92
2022/12/25 23:00:16;;;;;;;18.63;6.97;;;;;;;1.09;52.80;100654.56;4865840;29;20051;-93
2022/12/25 23:02:47;;;;;;;13.43;6.57;;;;;;;1.36;51.36;100699.16;4851296;29;20045;-93
2022/12/25 23:05:43;;;;;;;20.00;7.95;;;;;;;1.17;52.13;100667.78;4855949;29;20045;-95
2022/12/25 23:08:15;;;;;;;17.48;6.97;;;;;;;1.05;51.58;100654.19;4863802;29;20041;-94
2022/12/25 23:11:03;;;;;;;;;;;;;;;;;;;;;
2022/12/25 23:16:49;;;;;;;15.20;7.07;;;;;;;1.18;52.61;100694.50;4859422;29;20067;-91
2022/12/25 23:26:06;;;;;;;13.40;6.95;;;;;;;0.94;52.42;100660.28;4853248;29;20136;-94
2022/12/25 23:27:47;;;;;;;13.95;6.03;;;;;;;1.07;52.50;100691.69;4869832;29;20041;-93
2022/12/25 23:30:15;;;;;;;12.32;5.68;;;;;;;1.52;52.77;100758.94;4858256;29;20037;-93
2022/12/25 23:32:47;;;;;;;12.85;6.38;;;;;;;1.21;52.34;100717.47;4851870;29;20122;-92
2022/12/25 23:35:13;;;;;;;16.65;6.45;;;;;;;1.08;52.36;100701.41;4844179;29;20037;-92
2022/12/25 23:37:45;;;;;;;16.05;7.13;;;;;;;1.74;51.76;100813.34;4834920;29;20075;-92
2022/12/25 23:40:16;;;;;;;11.27;5.68;;;;;;;1.25;52.15;100728.66;4832942;29;20041;-92
2022/12/25 23:42:47;;;;;;;14.05;6.25;;;;;;;1.31;52.43;100743.94;4854911;29;20396;-94
2022/12/25 23:45:21;;;;;;;16.73;7.00;;;;;;;1.01;52.85;100693.38;4862109;29;20041;-92
2022/12/25 23:47:57;;;;;;;14.43;6.32;;;;;;;1.04;52.29;100709.09;4846082;29;20556;-95
2022/12/25 23:50:27;;;;;;;10.90;6.35;;;;;;;1.10;52.00;100712.81;4852661;29;20041;-94
2022/12/25 23:52:53;;;;;;;19.00;7.05;;;;;;;1.05;52.27;100699.97;4861756;29;20644;-96
2022/12/25 23:55:22;;;;;;;19.33;6.75;;;;;;;1.31;53.03;100752.84;4845462;29;20045;-93
2022/12/25 23:57:49;;;;;;;13.25;5.75;;;;;;;1.15;52.03;100718.34;4837351;29;20048;-94
